Hauptseite
METAR-TAF:

METAR-TAF

Flughäfen :

Flughafen Wladiwostok

Wladiwostok, Russland

Breite: 43-07N, Länge: 131-56E, Höhe: 184 m

Beobachtung

Neuester Wetterbericht von vor 33 Minuten, um 21:00 UTC
Wind 8 kt aus Nord
Temperatur -13°C
Luftfeuchtigkeit 43%
Luftdruck 1036 hPa
Sichtweite 10 km oder mehr

METAR: UHWW 202100Z 01004MPS 9999 NSC M13/M23 Q1036 R25L/0///70 NOSIG RMK QFE775

Zeit: 07:33 (21:33 UTC)

Prognose

Neuester Wetterbericht von vor 1 Stunde und 41 Minuten, um 19:52 UTC
Gültige Prognose vom 20 um 21 UTC bis 21 um 21 UTC
Wind 6 kt aus Nord, Böen bis zu 19 kt
Sichtweite 10 km oder mehr

TAF: UHWW 201952Z 2021/2121 36003G10MPS 9999 NSC

Wetterbeobachtungen und Prognosen von mehr als 4000 Flughäfen (METAR und TAF Bericht).

Die verfügbaren Stationen werden durch gelbe und rote Markierungen auf der Karte dargestellt.

Führen Sie die Maus auf sie, um den Namen der Station zu sehen.

Darauf klicken, um die Beobachtung von Wetterbeobachtungen und Prognosen zu sehen.

Um die Karte zu ändern : klicken Sie auf den grünen Tasten mit einem schwarzen Kreuz Zum Vergrößern, auf den grünen Button mit einem Gedankenstrich zu verkleinern, oder auf die grünen Pfeile für benachbarte Karten.


METAR-TAF: